Station: Hindmarsh Island  

  Atmospheric Gas Attenuation - ITU Rec 676-11   ----------------- dB/100km -----------------
Date Time Temp RH % AH g/m3 Dew Point Wind Direction Speed kph Gust kph Barometer mB Rainfall Since 9am 24GHz 47GHz 76GHz 122GHz 134GHz 241GHz
04/05 15:40 17.3 68 10.02 11.3 37 41 1014.8 0.8 22.4 27.2 43.7 115.0 112.6 388.5
04/05 15:30 17.9 68 10.38 11.9 28 39 1014.8 0.8 23.2 27.6 44.9 118.0 116.5 402.2
04/05 15:20 17.5 71 10.58 12.2 26 32 1014.8 0.8 23.6 28.1 45.9 120.8 119.7 413.6
04/05 15:10 16.9 76 10.93 12.6 24 30 1014.6 0.8 24.4 28.8 47.7 125.5 125.4 433.4
04/05 15:00 16.8 75 10.72 12.3 32 43 1014.5 0.8 24.0 28.5 46.9 123.4 122.7 423.9
04/05 14:50 16.5 73 10.25 11.6 35 43 1014.4 0.8 23.0 27.8 45.1 118.6 116.8 403.2
04/05 14:40 16.9 72 10.36 11.8 33 39 1014.1 0.8 23.2 27.9 45.3 119.2 117.6 406.2
04/05 14:30 17.4 70 10.37 11.9 39 46 1013.9 0.8 23.2 27.7 45.1 118.5 117.0 404.0
04/05 14:20 17.8 69 10.47 12 37 41 1013.7 0.8 23.4 27.7 45.2 119.0 117.7 406.5
04/05 14:10 18 67 10.29 11.8 39 44 1013.6 0.8 23.0 27.4 44.4 116.7 115.0 397.1
04/05 14:00 18.1 69 10.66 12.3 37 46 1013.6 0.8 23.8 28.0 45.8 120.6 119.8 413.8
04/05 13:50 18.1 69 10.66 12.3 35 39 1013.5 0.8 23.8 28.0 45.8 120.6 119.8 413.8
04/05 13:40 18.2 69 10.72 12.4 35 41 1013.5 0.8 23.9 28.0 46.0 121.1 120.4 416.0
04/05 13:30 18.6 66 10.5 12.1 35 46 1013.4 0.8 23.4 27.5 44.9 118.1 116.9 403.7
04/05 13:20 18.2 66 10.26 11.7 39 48 1013.4 0.8 22.9 27.3 44.1 116.1 114.3 394.7
04/05 13:10 18.6 68 10.82 12.6 32 33 1013.5 0.8 24.1 28.1 46.2 121.5 121.1 418.6
04/05 13:00 18.4 65 10.22 11.7 30 43 1013.3 0.8 22.8 27.1 43.9 115.4 113.5 391.8
04/05 12:50 18.3 67 10.47 12.1 24 30 1013.5 0.8 23.3 27.6 44.9 118.2 116.9 403.9
04/05 12:40 18 67 10.29 11.8 26 30 1013.5 0.8 23.0 27.4 44.4 116.7 115.0 397.1
04/05 12:30 17.8 68 10.32 11.8 33 46 1013.7 0.8 23.0 27.5 44.6 117.4 115.7 399.5
04/05 12:20 18.2 70 10.88 12.6 35 39 1013.6 0.8 24.2 28.3 46.7 122.8 122.6 423.6
04/05 12:10 18.2 71 11.03 12.9 37 43 1013.6 0.8 24.5 28.5 47.3 124.5 124.6 430.7
04/05 12:00 17.7 75 11.31 13.2 33 44 1013.8 0.8 25.2 29.2 48.8 128.4 129.3 446.9
04/05 11:50 17.4 77 11.41 13.3 35 46 1013.8 0.8 25.4 29.5 49.4 130.0 131.1 453.4
04/05 11:40 16 74 10.08 11.4 37 44 1013.8 0.8 22.6 27.7 44.7 117.5 115.2 397.5
04/05 11:30 17 75 10.85 12.5 32 44 1013.9 0.8 24.2 28.6 47.3 124.4 124.1 428.8
04/05 11:20 16.6 80 11.3 13.1 35 43 1013.8 0.8 25.2 29.5 49.4 130.1 131.0 452.8
04/05 11:10 16.2 84 11.58 13.5 30 35 1013.7 0.8 25.8 30.1 50.9 134.0 135.6 468.9
04/05 11:00 15.3 84 10.97 12.6 30 54 1013.7 0.8 24.6 29.4 48.8 128.5 128.6 444.1
04/05 10:50 18 76 11.67 13.7 28 50 1013.7 0.2 25.9 29.7 50.1 131.9 133.7 462.4
04/05 10:40 16.9 78 11.22 13 22 30 1013.5 0.2 25.0 29.3 48.9 128.7 129.3 447.0
04/05 10:30 16 84 11.44 13.3 22 35 1013.5 0.2 25.5 30.0 50.4 132.7 134.0 463.1
04/05 10:20 15.5 83 10.97 12.6 24 30 1013.4 0.2 24.6 29.3 48.7 128.1 128.2 442.9
04/05 10:10 16.7 74 10.52 12 30 35 1013.3 0 23.5 28.2 46.0 121.2 120.0 414.5
04/05 10:00 16.5 75 10.53 12.1 26 35 1013 0 23.6 28.2 46.2 121.6 120.5 416.0
04/05 09:50 15.9 78 10.56 12.1 24 28 1012.9 0 23.7 28.5 46.7 122.8 121.8 420.6
04/05 09:40 16.1 78 10.69 12.3 28 32 1012.9 0 23.9 28.6 47.1 123.9 123.3 425.8
04/05 09:30 15.8 79 10.63 12.2 28 43 1012.8 0 23.8 28.6 47.0 123.7 122.9 424.5
04/05 09:20 15.6 82 10.9 12.5 26 32 1012.8 0 24.4 29.1 48.3 127.1 127.0 438.7
04/05 09:10 14.9 84 10.71 12.2 30 37 1012.6 0 24.1 29.0 47.9 126.1 125.5 433.3
04/05 09:00 14.9 85 10.83 12.4 28 43 1012.5 0 24.3 29.2 48.4 127.4 127.1 439.1
04/05 08:50 14.9 84 10.71 12.2 24 33 1012.4 2.8 24.1 29.0 47.9 126.0 125.4 433.2
04/05 08:40 15.5 77 10.18 11.5 32 39 1012.2 2.6 22.9 27.9 45.3 119.1 117.1 404.3
04/05 08:30 15.9 75 10.16 11.5 26 35 1011.8 2.6 22.8 27.8 45.0 118.3 116.2 401.2
04/05 08:20 15.5 76 10.05 11.3 28 33 1011.6 2.6 22.6 27.7 44.7 117.6 115.3 397.9
04/05 08:10 15.2 77 9.99 11.2 28 32 1011.4 2.6 22.5 27.7 44.6 117.4 114.9 396.6
04/05 08:00 15 80 10.26 11.6 22 30 1011.3 2.6 23.1 28.2 45.9 120.7 118.9 410.5
04/05 07:50 14.6 81 10.14 11.4 19 22 1011.3 2.6 22.8 28.1 45.6 120.0 117.9 406.8
04/05 07:40 14.4 82 10.14 11.4 20 26 1011.1 2.6 22.9 28.2 45.7 120.2 118.2 407.8
04/05 07:30 14.3 82 10.07 11.3 20 26 1011 2.6 22.7 28.1 45.5 119.6 117.4 404.9
04/05 07:20 14.2 82 10.01 11.2 22 26 1010.9 2.6 22.6 28.0 45.3 119.1 116.7 402.5
04/05 07:10 14.2 82 10.01 11.2 20 26 1010.8 2.6 22.6 28.0 45.3 119.1 116.7 402.5
04/05 07:00 14.1 83 10.07 11.3 20 32 1010.6 2.6 22.7 28.1 45.6 119.9 117.6 405.8
04/05 06:50 14.1 83 10.07 11.3 20 22 1010.5 2.6 22.7 28.1 45.6 119.9 117.6 405.8
04/05 06:40 14.1 83 10.07 11.3 20 24 1010.3 2.6 22.7 28.1 45.5 119.8 117.6 405.7
04/05 06:30 14.2 83 10.14 11.4 22 30 1010.3 2.6 22.9 28.2 45.8 120.5 118.4 408.6
04/05 06:20 14.2 83 10.14 11.4 24 30 1010.2 2.6 22.9 28.2 45.8 120.5 118.4 408.5
04/05 06:10 14.3 83 10.2 11.5 24 30 1010 2.6 23.0 28.3 46.0 120.9 119.1 410.9
04/05 06:00 14.2 85 10.38 11.7 24 32 1009.9 2.6 23.4 28.6 46.8 123.1 121.7 420.1
04/05 05:50 14.1 86 10.44 11.8 22 26 1009.8 2.6 23.5 28.7 47.1 124.0 122.7 423.6
04/05 05:40 14.1 87 10.56 12 19 24 1009.7 2.6 23.8 28.9 47.6 125.3 124.4 429.4
04/05 05:30 14.1 87 10.56 12 20 26 1009.5 2.6 23.8 28.9 47.6 125.3 124.4 429.3
04/05 05:20 14.2 87 10.62 12.1 19 22 1009.4 2.6 23.9 29.0 47.8 125.8 125.0 431.7
04/05 05:10 14.3 87 10.69 12.2 22 26 1009.4 2.6 24.1 29.1 48.0 126.4 125.9 434.6
04/05 05:00 14.2 86 10.5 11.9 22 32 1009.3 2.6 23.6 28.8 47.3 124.4 123.3 425.8
04/05 04:50 14.1 87 10.56 12 24 30 1009.3 2.6 23.8 28.9 47.6 125.3 124.3 429.3
04/05 04:40 14 87 10.49 11.9 24 26 1009.3 2.6 23.6 28.8 47.3 124.6 123.5 426.4
04/05 04:30 14 88 10.61 12 20 30 1009.2 2.6 23.9 29.0 47.8 126.0 125.2 432.3
04/05 04:20 14.2 87 10.62 12.1 19 20 1009.1 2.6 23.9 29.0 47.8 125.8 125.0 431.6
04/05 04:10 14 88 10.61 12 19 24 1009.2 2.6 23.9 29.0 47.8 126.0 125.2 432.3
04/05 04:00 14 89 10.74 12.2 20 28 1009 2.6 24.2 29.3 48.4 127.5 127.0 438.6
04/05 03:50 14.1 88 10.68 12.1 26 33 1009.1 2.4 24.0 29.1 48.1 126.6 126.0 435.1
04/05 03:40 14.1 88 10.68 12.1 20 24 1009.2 2.4 24.0 29.1 48.1 126.6 126.0 435.2
04/05 03:30 14.1 88 10.68 12.1 22 32 1009.1 2.4 24.0 29.1 48.1 126.6 126.0 435.1
04/05 03:20 14 88 10.61 12 19 24 1009.3 2.2 23.9 29.0 47.9 126.0 125.2 432.3
04/05 03:10 14.1 87 10.56 12 20 30 1009.3 2.2 23.8 28.9 47.6 125.3 124.3 429.3
04/05 03:00 14.3 86 10.57 12 22 32 1009.4 2 23.8 28.9 47.5 125.1 124.2 428.7
04/05 02:50 14.5 83 10.32 11.6 22 28 1009.4 1.6 23.2 28.4 46.3 121.9 120.4 415.4
04/05 02:40 15.2 77 9.99 11.2 33 39 1009.4 1.2 22.5 27.6 44.5 117.2 114.8 395.9
04/05 02:30 15.1 77 9.93 11.1 28 46 1009.3 1.2 22.4 27.5 44.3 116.6 114.1 393.6
04/05 02:20 15.2 76 9.86 11 30 37 1009.4 1.2 22.2 27.4 44.0 115.7 113.0 389.8
04/05 02:10 15.1 76 9.8 10.9 30 37 1009.4 1.2 22.1 27.3 43.8 115.2 112.3 387.4
04/05 02:00 15.1 75 9.68 10.7 28 41 1009.4 1.2 21.8 27.1 43.3 113.9 110.7 381.8
04/05 01:50 15.1 74 9.55 10.5 24 28 1009.5 1.2 21.6 26.9 42.8 112.5 109.0 375.7
04/05 01:40 15.1 74 9.55 10.5 30 35 1009.3 1.2 21.6 26.9 42.8 112.5 109.0 375.6
04/05 01:30 15.1 74 9.55 10.5 30 43 1009.4 1.2 21.6 26.9 42.8 112.5 109.0 375.7
04/05 01:20 15.1 73 9.42 10.3 28 35 1009.3 1.2 21.3 26.7 42.3 111.1 107.2 369.6
04/05 01:10 15.2 73 9.48 10.4 32 41 1009.4 1.2 21.4 26.8 42.4 111.6 107.9 371.9
04/05 01:00 15.2 72 9.35 10.2 28 43 1009.3 1.2 21.1 26.5 41.9 110.2 106.2 365.8
04/05 00:50 15.1 72 9.29 10.1 32 37 1009.3 1.2 21.0 26.5 41.7 109.7 105.5 363.5
04/05 00:40 15.1 73 9.42 10.3 28 37 1009.4 1.2 21.3 26.7 42.3 111.1 107.2 369.6
04/05 00:30 15.2 71 9.22 10 28 43 1009.4 1.2 20.9 26.3 41.4 108.8 104.4 359.8
04/05 00:20 15.2 71 9.22 10 24 30 1009.6 1.2 20.9 26.3 41.4 108.8 104.5 359.9
04/05 00:10 15.3 70 9.14 9.9 26 32 1009.7 1.2 20.7 26.2 41.0 107.8 103.3 355.8
04/05 00:00 15.2 68 8.83 9.3 32 48 1009.6 1.2 20.0 25.7 39.8 104.7 99.3 342.0
03/05 23:50 15.2 69 8.96 9.6 28 32 1009.6 1.2 20.3 25.9 40.4 106.0 101.0 347.9
03/05 23:40 15.3 69 9.01 9.7 32 41 1009.7 1.2 20.4 26.0 40.5 106.4 101.6 349.8
03/05 23:30 15.2 70 9.09 9.8 26 39 1009.9 1.2 20.6 26.2 40.9 107.5 102.8 354.0
03/05 23:20 15.5 69 9.12 9.8 28 35 1010 1.2 20.6 26.1 40.9 107.4 102.8 354.1
03/05 23:10 15.5 69 9.12 9.8 24 33 1010 1.2 20.6 26.1 40.9 107.4 102.8 354.1

Last Refresh: 04-May-2026 15:46:29

Bureau of Meteorology